createdAt,value
2023-03-06T00:00:27.447Z,0.41
2023-03-06T00:02:54.062Z,0.29
2023-03-06T00:05:20.591Z,0.19
2023-03-06T00:07:47.493Z,0.06
2023-03-06T00:10:15.861Z,0.04
2023-03-06T00:12:42.713Z,0.01
2023-03-06T00:15:10.570Z,0.00
2023-03-06T00:17:37.221Z,-0.02
2023-03-06T00:20:05.776Z,0.03
2023-03-06T00:22:33.292Z,0.07
2023-03-06T00:24:59.869Z,0.06
2023-03-06T00:27:26.376Z,0.05
2023-03-06T00:29:58.293Z,0.13
2023-03-06T00:32:26.181Z,0.13
2023-03-06T00:34:53.634Z,0.10
2023-03-06T00:37:22.327Z,0.02
2023-03-06T00:39:52.215Z,-0.05
2023-03-06T00:42:19.641Z,-0.03
2023-03-06T00:44:46.852Z,-0.05
2023-03-06T00:47:13.682Z,-0.09
2023-03-06T00:49:40.089Z,-0.05
2023-03-06T00:52:06.905Z,0.06
2023-03-06T00:54:33.650Z,0.10
2023-03-06T00:57:00.110Z,0.12
2023-03-06T00:59:27.693Z,0.17
2023-03-06T01:01:55.123Z,0.09
2023-03-06T01:04:22.092Z,0.07
2023-03-06T01:06:49.008Z,0.06
2023-03-06T01:09:15.767Z,0.13
2023-03-06T01:11:42.557Z,0.21
2023-03-06T01:14:08.997Z,0.26
2023-03-06T01:16:35.989Z,0.34
2023-03-06T01:19:03.055Z,0.28
2023-03-06T01:21:29.485Z,0.25
2023-03-06T01:23:55.898Z,0.26
2023-03-06T01:26:22.693Z,0.21
2023-03-06T01:28:49.134Z,0.23
2023-03-06T01:31:15.596Z,0.19
2023-03-06T01:33:42.411Z,0.21
2023-03-06T01:36:12.099Z,0.17
2023-03-06T01:38:38.619Z,0.16
2023-03-06T01:41:06.926Z,0.14
2023-03-06T01:43:36.219Z,0.20
2023-03-06T01:46:42.565Z,0.37
2023-03-06T01:49:12.816Z,0.38
2023-03-06T01:51:44.974Z,0.34
2023-03-06T01:54:35.462Z,0.03
2023-03-06T01:57:22.774Z,-0.15
2023-03-06T01:59:55.707Z,-0.18
2023-03-06T02:02:22.886Z,-0.19
2023-03-06T02:04:49.499Z,-0.12
2023-03-06T02:07:19.686Z,0.02
2023-03-06T02:09:46.287Z,0.10
2023-03-06T02:12:16.467Z,0.00
2023-03-06T02:14:43.512Z,-0.01
2023-03-06T02:17:12.213Z,0.10
2023-03-06T02:20:04.467Z,0.06
2023-03-06T02:22:54.242Z,0.04
2023-03-06T02:25:31.779Z,-0.07
2023-03-06T02:27:58.988Z,-0.11
2023-03-06T02:30:27.127Z,-0.01
2023-03-06T02:32:53.734Z,-0.02
2023-03-06T02:35:29.160Z,0.08
2023-03-06T02:37:57.593Z,0.06
2023-03-06T02:40:24.844Z,0.02
2023-03-06T02:42:56.806Z,0.02
2023-03-06T02:45:34.061Z,-0.03
2023-03-06T02:48:00.860Z,-0.05
2023-03-06T02:50:27.392Z,-0.10
2023-03-06T02:52:54.158Z,-0.08
2023-03-06T02:55:21.049Z,-0.14
2023-03-06T02:57:48.092Z,-0.21
2023-03-06T03:00:15.349Z,-0.25
2023-03-06T03:02:42.071Z,-0.29
2023-03-06T03:05:09.292Z,-0.30
2023-03-06T03:07:35.941Z,-0.33
2023-03-06T03:10:03.049Z,-0.35
2023-03-06T03:12:29.859Z,-0.32
2023-03-06T03:14:56.575Z,-0.35
2023-03-06T03:17:23.596Z,-0.39
2023-03-06T03:19:51.000Z,-0.51
2023-03-06T03:22:18.185Z,-0.49
2023-03-06T03:24:44.622Z,-0.48
2023-03-06T03:27:11.618Z,-0.41
2023-03-06T03:29:38.184Z,-0.32
2023-03-06T03:32:04.997Z,-0.30
2023-03-06T03:34:31.700Z,-0.30
2023-03-06T03:36:58.094Z,-0.24
2023-03-06T03:39:25.142Z,-0.33
2023-03-06T03:41:51.608Z,-0.20
2023-03-06T03:44:18.409Z,-0.16
2023-03-06T03:46:44.902Z,-0.22
2023-03-06T03:49:12.858Z,-0.23
2023-03-06T03:51:39.725Z,-0.23
2023-03-06T03:54:06.773Z,-0.33
2023-03-06T03:56:33.786Z,-0.27
2023-03-06T03:59:00.937Z,-0.27
2023-03-06T04:01:27.421Z,-0.26
2023-03-06T04:03:53.952Z,-0.22
2023-03-06T04:06:20.718Z,-0.24
2023-03-06T04:08:47.577Z,-0.16
2023-03-06T04:11:13.999Z,-0.16
2023-03-06T04:13:40.502Z,-0.19
2023-03-06T04:16:07.694Z,-0.18
2023-03-06T04:18:34.831Z,-0.28
2023-03-06T04:21:01.246Z,-0.37
2023-03-06T04:23:27.901Z,-0.36
2023-03-06T04:25:55.141Z,-0.41
2023-03-06T04:28:21.740Z,-0.48
2023-03-06T04:30:48.187Z,-0.56
2023-03-06T04:33:15.137Z,-0.53
2023-03-06T04:35:41.643Z,-0.52
2023-03-06T04:38:08.548Z,-0.43
2023-03-06T04:40:37.667Z,-0.46
2023-03-06T04:43:05.554Z,-0.45
2023-03-06T04:45:34.349Z,-0.41
2023-03-06T04:48:01.445Z,-0.32
2023-03-06T04:50:32.288Z,-0.22
2023-03-06T04:53:01.119Z,-0.21
2023-03-06T04:55:28.497Z,-0.24
2023-03-06T04:57:55.542Z,-0.23
2023-03-06T05:00:25.195Z,-0.24
2023-03-06T05:02:52.468Z,-0.24
2023-03-06T05:05:18.980Z,-0.35
2023-03-06T05:07:45.858Z,-0.31
2023-03-06T05:10:14.951Z,-0.38
2023-03-06T05:12:41.647Z,-0.41
2023-03-06T05:15:10.264Z,-0.52
2023-03-06T05:17:37.408Z,-0.51
2023-03-06T05:20:10.001Z,-0.46
2023-03-06T05:22:37.187Z,-0.48
2023-03-06T05:25:04.913Z,-0.48
2023-03-06T05:27:31.477Z,-0.58
2023-03-06T05:29:58.446Z,-0.61
2023-03-06T05:32:24.944Z,-0.61
2023-03-06T05:34:51.731Z,-0.63
2023-03-06T05:37:18.545Z,-0.62
2023-03-06T05:39:45.293Z,-0.60
2023-03-06T05:42:11.736Z,-0.61
2023-03-06T05:44:38.574Z,-0.55
2023-03-06T05:47:05.610Z,-0.53
2023-03-06T05:49:34.763Z,-0.56
2023-03-06T05:52:04.392Z,-0.49
2023-03-06T05:54:32.845Z,-0.40
2023-03-06T05:56:59.884Z,-0.47
2023-03-06T05:59:28.558Z,-0.54
2023-03-06T06:01:56.270Z,-0.56
2023-03-06T06:04:24.607Z,-0.52
2023-03-06T06:06:53.647Z,-0.39
2023-03-06T06:09:21.339Z,-0.35
2023-03-06T06:11:51.398Z,-0.28
2023-03-06T06:14:18.266Z,-0.27
2023-03-06T06:16:44.832Z,-0.09
2023-03-06T06:19:18.706Z,-0.04
2023-03-06T06:21:47.728Z,0.02
2023-03-06T06:24:16.064Z,0.00
2023-03-06T06:26:43.430Z,0.04
2023-03-06T06:29:10.883Z,0.00
2023-03-06T06:31:37.609Z,0.10
2023-03-06T06:34:06.686Z,0.08
2023-03-06T06:36:34.004Z,0.07
2023-03-06T06:39:01.259Z,0.14
2023-03-06T06:41:50.740Z,0.12
2023-03-06T06:44:16.557Z,0.15
2023-03-06T06:49:32.820Z,0.16
2023-03-06T06:52:00.009Z,0.23
2023-03-06T06:54:26.781Z,0.27
2023-03-06T06:56:56.654Z,0.18
2023-03-06T06:59:23.785Z,0.14
2023-03-06T07:01:51.257Z,0.14
2023-03-06T07:04:19.642Z,0.31
2023-03-06T07:06:46.481Z,0.41
2023-03-06T07:09:13.216Z,0.58
2023-03-06T07:11:41.078Z,0.68
2023-03-06T07:14:07.787Z,0.77
2023-03-06T07:16:34.397Z,0.88
2023-03-06T07:19:01.219Z,0.81
2023-03-06T07:21:27.686Z,0.73
2023-03-06T07:23:57.203Z,0.62
2023-03-06T07:26:28.104Z,0.90
2023-03-06T07:28:55.357Z,1.20
2023-03-06T07:31:24.919Z,1.28
2023-03-06T07:33:52.390Z,1.14
2023-03-06T07:36:19.383Z,1.10
2023-03-06T07:38:46.275Z,1.03
2023-03-06T07:41:13.529Z,0.91
2023-03-06T07:43:41.671Z,0.79
2023-03-06T07:46:09.031Z,0.71
2023-03-06T07:48:36.707Z,0.86
2023-03-06T07:51:09.535Z,1.18
2023-03-06T07:53:36.338Z,1.28
2023-03-06T07:56:08.793Z,1.54
2023-03-06T07:58:36.779Z,1.44
2023-03-06T08:01:05.326Z,1.70
2023-03-06T08:03:32.414Z,1.76
2023-03-06T08:06:11.262Z,1.70
2023-03-06T08:08:39.584Z,1.63
2023-03-06T08:11:12.015Z,1.63
2023-03-06T08:13:39.208Z,1.70
2023-03-06T08:16:06.422Z,1.86
2023-03-06T08:18:33.287Z,1.81
2023-03-06T08:21:29.973Z,1.91
2023-03-06T08:23:57.092Z,2.12
2023-03-06T08:26:27.376Z,2.09
2023-03-06T08:28:55.949Z,2.03
2023-03-06T08:31:27.529Z,1.88
2023-03-06T08:33:55.101Z,2.03
2023-03-06T08:36:21.795Z,2.29
2023-03-06T08:38:48.576Z,2.33
2023-03-06T08:41:15.786Z,2.26
2023-03-06T08:43:42.568Z,2.36
2023-03-06T08:46:10.920Z,2.06
2023-03-06T08:48:38.224Z,2.33
2023-03-06T08:51:05.289Z,2.48
2023-03-06T08:53:42.684Z,2.58
2023-03-06T08:56:26.520Z,2.58
2023-03-06T08:58:54.250Z,2.36
2023-03-06T09:01:27.106Z,2.19
2023-03-06T09:03:56.280Z,2.39
2023-03-06T09:06:23.157Z,2.35
2023-03-06T09:08:54.101Z,2.35
2023-03-06T09:11:22.747Z,2.59
2023-03-06T09:13:49.192Z,2.49
2023-03-06T09:16:15.945Z,2.46
2023-03-06T09:18:42.737Z,2.35
2023-03-06T09:21:10.272Z,2.43
2023-03-06T09:23:39.410Z,2.52
2023-03-06T09:26:07.960Z,2.53
2023-03-06T09:28:39.368Z,1.98
2023-03-06T09:31:11.061Z,2.22
2023-03-06T09:33:38.553Z,2.37
2023-03-06T09:36:06.265Z,2.30
2023-03-06T09:38:33.194Z,2.42
2023-03-06T09:41:04.011Z,2.68
2023-03-06T09:43:35.582Z,3.07
2023-03-06T09:46:16.867Z,3.09
2023-03-06T09:48:55.473Z,3.72
2023-03-06T09:51:33.396Z,3.84
2023-03-06T09:54:24.694Z,3.95
2023-03-06T09:56:51.504Z,4.06
2023-03-06T09:59:24.415Z,3.95
2023-03-06T10:02:17.522Z,3.99
2023-03-06T10:04:50.032Z,4.32
2023-03-06T10:07:28.244Z,3.72
2023-03-06T10:10:02.406Z,3.44
2023-03-06T10:12:35.169Z,4.17
2023-03-06T10:15:14.256Z,5.82
2023-03-06T10:17:42.546Z,6.34
2023-03-06T10:20:42.317Z,5.68
2023-03-06T10:23:42.420Z,3.95
2023-03-06T10:26:16.909Z,4.42
2023-03-06T10:28:54.560Z,5.17
2023-03-06T10:31:26.766Z,5.22
2023-03-06T10:34:08.418Z,4.96
2023-03-06T10:36:36.044Z,5.93
2023-03-06T10:39:09.501Z,6.30
2023-03-06T10:41:36.933Z,6.31
2023-03-06T10:44:03.683Z,6.21
2023-03-06T10:46:39.552Z,6.66
2023-03-06T10:49:23.783Z,7.00
2023-03-06T10:51:59.431Z,6.49
2023-03-06T10:54:26.914Z,7.05
2023-03-06T10:56:53.525Z,6.52
2023-03-06T10:59:28.743Z,6.33
2023-03-06T11:01:58.174Z,6.28
2023-03-06T11:04:35.691Z,6.23
2023-03-06T11:07:22.116Z,6.40
2023-03-06T11:09:58.034Z,5.32
2023-03-06T11:12:39.341Z,4.77
2023-03-06T11:15:10.608Z,4.59
2023-03-06T11:17:52.584Z,4.52
2023-03-06T11:20:22.536Z,5.28
2023-03-06T11:22:55.156Z,4.34
2023-03-06T11:25:26.256Z,3.91
2023-03-06T11:27:59.709Z,3.64
2023-03-06T11:30:43.436Z,4.08
2023-03-06T11:33:48.915Z,3.83
2023-03-06T11:36:23.197Z,4.75
2023-03-06T11:38:54.038Z,4.38
2023-03-06T11:41:45.174Z,5.13
2023-03-06T11:44:40.081Z,5.50
2023-03-06T11:47:22.978Z,4.37
2023-03-06T11:50:00.235Z,3.25
2023-03-06T11:52:47.265Z,3.43
2023-03-06T11:55:19.284Z,3.15
2023-03-06T11:57:58.727Z,3.18
2023-03-06T12:00:32.059Z,3.08
2023-03-06T12:03:01.817Z,3.35
2023-03-06T12:05:28.385Z,3.08
2023-03-06T12:08:04.185Z,3.39
2023-03-06T12:14:21.506Z,4.03
2023-03-06T12:17:19.460Z,4.30
2023-03-06T12:20:07.720Z,4.40
2023-03-06T12:22:57.997Z,4.59
2023-03-06T12:25:42.887Z,4.16
2023-03-06T12:28:27.653Z,3.84
2023-03-06T12:31:02.906Z,3.50
2023-03-06T12:33:54.127Z,3.64
2023-03-06T12:36:36.330Z,4.31
2023-03-06T12:39:33.378Z,4.60
2023-03-06T12:42:17.792Z,4.65
2023-03-06T12:44:56.662Z,4.22
2023-03-06T12:47:28.138Z,4.33
2023-03-06T12:50:03.541Z,3.82
2023-03-06T12:52:32.570Z,3.45
2023-03-06T12:55:01.557Z,3.16
2023-03-06T12:57:27.979Z,3.21
2023-03-06T12:59:55.432Z,3.16
2023-03-06T13:02:48.888Z,3.23
2023-03-06T13:05:34.465Z,3.43
2023-03-06T13:08:09.913Z,3.45
2023-03-06T13:10:40.495Z,3.34
2023-03-06T13:13:33.357Z,3.40
2023-03-06T13:16:15.498Z,3.32
2023-03-06T13:18:41.868Z,3.05
2023-03-06T13:21:47.711Z,3.15
2023-03-06T13:24:16.620Z,3.28
2023-03-06T13:26:42.920Z,3.40
2023-03-06T13:29:37.808Z,3.31
2023-03-06T13:32:04.193Z,3.46
2023-03-06T13:34:39.339Z,3.43
2023-03-06T13:37:23.012Z,3.40
2023-03-06T13:39:52.853Z,3.83
2023-03-06T13:42:37.948Z,3.69
2023-03-06T13:45:08.651Z,3.88
2023-03-06T13:50:37.791Z,4.45
2023-03-06T13:53:23.699Z,3.28
2023-03-06T13:56:41.750Z,3.97
2023-03-06T13:59:23.274Z,4.61
2023-03-06T14:02:11.605Z,4.85
2023-03-06T14:04:57.866Z,4.30
2023-03-06T14:07:32.733Z,4.56
2023-03-06T14:10:08.164Z,4.32
2023-03-06T14:12:38.981Z,4.42
2023-03-06T14:15:25.952Z,4.00
2023-03-06T14:18:13.524Z,3.98
2023-03-06T14:20:39.982Z,4.43
2023-03-06T14:23:22.015Z,4.87
2023-03-06T14:25:55.011Z,4.73
2023-03-06T14:28:24.472Z,3.52
2023-03-06T14:30:52.740Z,4.38
2023-03-06T14:33:42.928Z,4.23
2023-03-06T14:36:19.959Z,4.59
2023-03-06T14:39:14.710Z,4.81
2023-03-06T14:41:41.440Z,4.81
2023-03-06T14:44:19.214Z,4.70
2023-03-06T14:46:47.709Z,4.53
2023-03-06T14:49:16.555Z,4.41
2023-03-06T14:51:51.517Z,4.52
2023-03-06T14:54:19.572Z,4.57
2023-03-06T14:56:54.277Z,4.54
2023-03-06T14:59:25.866Z,4.20
2023-03-06T15:01:59.618Z,3.79
2023-03-06T15:04:36.730Z,3.84
2023-03-06T15:07:08.518Z,3.46
2023-03-06T15:09:37.280Z,3.84
2023-03-06T15:12:29.633Z,4.12
2023-03-06T15:15:06.761Z,4.29
2023-03-06T15:17:45.694Z,4.28
2023-03-06T15:20:57.454Z,4.50
2023-03-06T15:23:45.175Z,4.48
2023-03-06T15:26:36.834Z,4.43
2023-03-06T15:29:10.459Z,4.14
2023-03-06T15:31:42.461Z,4.09
2023-03-06T15:34:12.119Z,3.98
2023-03-06T15:36:39.888Z,3.98
2023-03-06T15:39:38.854Z,3.83
2023-03-06T15:42:26.579Z,3.83
2023-03-06T15:44:55.074Z,3.89
2023-03-06T15:47:22.458Z,4.02
2023-03-06T15:49:52.004Z,3.86
2023-03-06T15:52:22.736Z,3.78
2023-03-06T15:54:49.522Z,3.64
2023-03-06T15:57:22.023Z,3.56
2023-03-06T15:59:49.190Z,3.59
2023-03-06T16:02:20.851Z,2.96
2023-03-06T16:04:48.414Z,3.03
2023-03-06T16:07:15.650Z,3.13
2023-03-06T16:09:43.189Z,3.17
2023-03-06T16:12:18.846Z,3.17
2023-03-06T16:14:47.594Z,3.14
2023-03-06T16:17:15.158Z,3.25
2023-03-06T16:19:41.998Z,3.21
2023-03-06T16:22:08.505Z,3.09
2023-03-06T16:24:35.042Z,3.09
2023-03-06T16:27:02.575Z,3.10
2023-03-06T16:29:29.749Z,3.05
2023-03-06T16:31:58.304Z,3.03
2023-03-06T16:34:25.166Z,2.95
2023-03-06T16:36:52.025Z,2.90
2023-03-06T16:39:21.353Z,2.75
2023-03-06T16:41:49.358Z,2.76
2023-03-06T16:44:15.944Z,2.76
2023-03-06T16:46:47.738Z,2.68
2023-03-06T16:49:23.372Z,2.71
2023-03-06T16:51:51.245Z,2.72
2023-03-06T16:54:17.707Z,2.64
2023-03-06T16:56:44.625Z,2.66
2023-03-06T16:59:12.700Z,2.68
2023-03-06T17:01:42.587Z,2.53
2023-03-06T17:04:09.465Z,2.52
2023-03-06T17:06:36.318Z,2.48
2023-03-06T17:09:03.087Z,2.55
2023-03-06T17:11:29.652Z,2.51
2023-03-06T17:13:56.268Z,2.38
2023-03-06T17:16:23.299Z,2.45
2023-03-06T17:18:50.652Z,2.47
2023-03-06T17:21:17.323Z,2.46
2023-03-06T17:23:44.811Z,2.49
2023-03-06T17:26:18.808Z,2.51
2023-03-06T17:28:46.646Z,2.54
2023-03-06T17:31:16.519Z,2.44
2023-03-06T17:33:44.364Z,2.46
2023-03-06T17:36:11.423Z,2.40
2023-03-06T17:38:38.071Z,2.41
2023-03-06T17:41:06.104Z,2.36
2023-03-06T17:43:32.945Z,2.48
2023-03-06T17:46:08.244Z,2.46
2023-03-06T17:48:35.204Z,2.55
2023-03-06T17:51:01.898Z,2.55
2023-03-06T17:53:28.872Z,2.49
2023-03-06T17:55:58.012Z,2.53
2023-03-06T17:58:25.155Z,2.49
2023-03-06T18:00:51.977Z,2.48
2023-03-06T18:03:18.987Z,2.38
2023-03-06T18:05:45.403Z,2.45
2023-03-06T18:08:12.089Z,2.41
2023-03-06T18:10:40.770Z,2.47
2023-03-06T18:13:08.325Z,2.48
2023-03-06T18:15:39.496Z,2.41
2023-03-06T18:18:07.929Z,2.37
2023-03-06T18:20:38.107Z,2.43
2023-03-06T18:23:04.576Z,2.50
2023-03-06T18:25:32.532Z,2.48
2023-03-06T18:27:59.448Z,2.39
2023-03-06T18:30:25.897Z,2.30
2023-03-06T18:32:52.804Z,2.34
2023-03-06T18:35:20.548Z,2.22
2023-03-06T18:37:46.965Z,2.31
2023-03-06T18:40:14.332Z,2.27
2023-03-06T18:42:40.769Z,2.25
2023-03-06T18:45:07.854Z,2.19
2023-03-06T18:47:34.701Z,2.18
2023-03-06T18:50:02.715Z,2.12
2023-03-06T18:52:29.172Z,2.15
2023-03-06T18:54:55.976Z,2.03
2023-03-06T18:59:55.249Z,2.00
2023-03-06T19:02:22.191Z,2.07
2023-03-06T19:04:48.592Z,2.16
2023-03-06T19:07:15.421Z,2.23
2023-03-06T19:09:44.503Z,2.14
2023-03-06T19:12:11.864Z,1.96
2023-03-06T19:14:38.372Z,2.05
2023-03-06T19:17:05.066Z,1.99
2023-03-06T19:19:31.834Z,2.03
2023-03-06T19:21:59.181Z,1.99
2023-03-06T19:24:26.425Z,2.00
2023-03-06T19:26:52.835Z,2.08
2023-03-06T19:29:19.855Z,2.09
2023-03-06T19:31:46.300Z,1.92
2023-03-06T19:34:12.705Z,2.02
2023-03-06T19:36:41.041Z,2.00
2023-03-06T19:39:09.486Z,1.94
2023-03-06T19:41:36.303Z,1.94
2023-03-06T19:44:03.570Z,2.00
2023-03-06T19:46:31.649Z,1.95
2023-03-06T19:49:03.411Z,1.92
2023-03-06T19:51:30.407Z,1.97
2023-03-06T19:53:57.742Z,1.95
2023-03-06T19:56:29.403Z,1.99
2023-03-06T19:58:56.634Z,2.01
2023-03-06T20:01:24.969Z,1.98
2023-03-06T20:03:59.585Z,1.63
2023-03-06T20:06:29.557Z,1.84
2023-03-06T20:08:56.141Z,1.51
2023-03-06T20:11:30.209Z,1.52
2023-03-06T20:14:02.814Z,1.28
2023-03-06T20:16:31.046Z,1.10
2023-03-06T20:18:59.891Z,1.10
2023-03-06T20:21:28.969Z,1.02
2023-03-06T20:23:58.370Z,1.06
2023-03-06T20:26:27.515Z,1.11
2023-03-06T20:28:54.750Z,1.13
2023-03-06T20:31:24.232Z,1.01
2023-03-06T20:33:52.983Z,0.94
2023-03-06T20:36:25.243Z,0.79
2023-03-06T20:38:51.649Z,0.78
2023-03-06T20:41:20.864Z,0.82
2023-03-06T20:43:47.927Z,0.89
2023-03-06T20:46:15.657Z,0.83
2023-03-06T20:48:43.220Z,0.79
2023-03-06T20:51:22.069Z,0.82
2023-03-06T20:53:50.299Z,1.07
2023-03-06T20:56:19.719Z,1.34
2023-03-06T20:58:46.639Z,1.52
2023-03-06T21:01:28.040Z,1.53
2023-03-06T21:03:57.077Z,1.62
2023-03-06T21:06:24.694Z,1.62
2023-03-06T21:08:51.423Z,1.17
2023-03-06T21:11:18.339Z,1.01
2023-03-06T21:13:45.300Z,0.89
2023-03-06T21:16:20.950Z,0.85
2023-03-06T21:18:48.000Z,0.87
2023-03-06T21:21:24.095Z,0.97
2023-03-06T21:23:51.168Z,1.06
2023-03-06T21:26:20.459Z,0.89
2023-03-06T21:28:47.325Z,1.05
2023-03-06T21:31:16.501Z,1.01
2023-03-06T21:33:45.286Z,0.89
2023-03-06T21:36:11.728Z,0.88
2023-03-06T21:38:38.409Z,0.90
2023-03-06T21:41:13.471Z,0.97
2023-03-06T21:43:40.806Z,0.77
2023-03-06T21:46:07.647Z,0.70
2023-03-06T21:48:34.178Z,0.75
2023-03-06T21:51:12.525Z,0.70
2023-03-06T21:53:42.800Z,0.71
2023-03-06T21:56:10.463Z,0.73
2023-03-06T21:58:37.295Z,0.63
2023-03-06T22:01:12.157Z,0.57
2023-03-06T22:03:39.298Z,0.57
2023-03-06T22:06:17.094Z,0.50
2023-03-06T22:08:44.932Z,0.45
2023-03-06T22:11:19.750Z,0.44
2023-03-06T22:13:48.243Z,0.42
2023-03-06T22:16:15.740Z,0.43
2023-03-06T22:18:47.274Z,0.48
2023-03-06T22:21:16.564Z,0.55
2023-03-06T22:23:43.568Z,0.58
2023-03-06T22:26:14.258Z,0.61
2023-03-06T22:28:42.475Z,0.64
2023-03-06T22:31:18.829Z,0.70
2023-03-06T22:33:45.815Z,0.70
2023-03-06T22:36:14.761Z,0.72
2023-03-06T22:38:45.019Z,0.78
2023-03-06T22:41:12.910Z,0.67
2023-03-06T22:43:39.664Z,0.58
2023-03-06T22:46:11.671Z,0.62
2023-03-06T22:48:38.476Z,0.64
2023-03-06T22:51:07.467Z,0.62
2023-03-06T22:53:34.318Z,0.59
2023-03-06T22:56:02.088Z,0.61
2023-03-06T22:58:37.526Z,0.64
2023-03-06T23:01:28.816Z,0.61
2023-03-06T23:03:58.207Z,0.64
2023-03-06T23:06:28.893Z,0.65
2023-03-06T23:09:06.321Z,0.64
2023-03-06T23:11:33.137Z,0.61
2023-03-06T23:14:00.647Z,0.63
2023-03-06T23:16:27.388Z,0.63
2023-03-06T23:18:54.040Z,0.64
2023-03-06T23:21:21.821Z,0.67
2023-03-06T23:23:53.477Z,0.63
2023-03-06T23:26:23.561Z,0.64
2023-03-06T23:28:50.290Z,0.63
2023-03-06T23:31:19.629Z,0.62
2023-03-06T23:33:46.952Z,0.65
2023-03-06T23:36:14.918Z,0.62
2023-03-06T23:38:41.469Z,0.66
2023-03-06T23:41:11.913Z,0.69
2023-03-06T23:43:39.028Z,0.66
2023-03-06T23:46:06.943Z,0.66
2023-03-06T23:48:34.919Z,0.64
2023-03-06T23:51:08.571Z,0.64
2023-03-06T23:53:35.629Z,0.62
2023-03-06T23:56:05.054Z,0.65
2023-03-06T23:58:32.025Z,0.62
